createdAt,value
2023-04-10T00:00:57.657Z,19.70
2023-04-10T00:03:27.664Z,20.67
2023-04-10T00:05:57.430Z,20.55
2023-04-10T00:08:27.165Z,20.43
2023-04-10T00:10:57.395Z,20.07
2023-04-10T00:13:26.130Z,20.17
2023-04-10T00:15:54.754Z,20.53
2023-04-10T00:18:23.526Z,21.00
2023-04-10T00:20:52.205Z,20.27
2023-04-10T00:23:21.000Z,20.33
2023-04-10T00:25:50.002Z,21.00
2023-04-10T00:28:20.063Z,22.07
2023-04-10T00:30:48.881Z,22.57
2023-04-10T00:33:17.626Z,22.63
2023-04-10T00:35:47.119Z,25.03
2023-04-10T00:38:15.971Z,24.30
2023-04-10T00:40:44.690Z,24.30
2023-04-10T00:43:13.945Z,24.60
2023-04-10T00:45:44.339Z,25.50
2023-04-10T00:48:13.732Z,25.30
2023-04-10T00:50:42.513Z,24.67
2023-04-10T00:53:11.309Z,24.97
2023-04-10T00:55:40.279Z,25.87
2023-04-10T00:58:08.971Z,24.60
2023-04-10T01:00:37.792Z,25.97
2023-04-10T01:03:08.349Z,25.60
2023-04-10T01:05:46.575Z,25.40
2023-04-10T01:08:37.941Z,25.53
2023-04-10T01:11:14.582Z,25.77
2023-04-10T01:13:54.500Z,24.63
2023-04-10T01:16:32.710Z,25.27
2023-04-10T01:19:16.426Z,25.60
2023-04-10T01:21:46.453Z,24.83
2023-04-10T01:24:43.033Z,26.00
2023-04-10T01:27:27.337Z,27.57
2023-04-10T01:30:01.232Z,26.83
2023-04-10T01:32:35.670Z,26.70
2023-04-10T01:35:09.902Z,26.50
2023-04-10T01:37:43.901Z,27.17
2023-04-10T01:40:19.253Z,26.90
2023-04-10T01:42:54.074Z,26.38
2023-04-10T01:45:29.719Z,26.87
2023-04-10T01:47:59.743Z,26.58
2023-04-10T01:50:31.796Z,27.02
2023-04-10T01:53:02.986Z,27.10
2023-04-10T01:55:34.385Z,27.40
2023-04-10T01:58:05.249Z,27.83
2023-04-10T02:00:43.176Z,27.03
2023-04-10T02:03:12.943Z,26.30
2023-04-10T02:05:56.547Z,27.23
2023-04-10T02:08:35.524Z,27.10
2023-04-10T02:11:14.422Z,27.57
2023-04-10T02:13:44.015Z,29.27
2023-04-10T02:16:18.512Z,27.93
2023-04-10T02:18:50.025Z,27.17
2023-04-10T02:21:18.997Z,26.97
2023-04-10T02:23:48.189Z,27.77
2023-04-10T02:26:16.968Z,28.80
2023-04-10T02:28:45.739Z,27.10
2023-04-10T02:31:15.963Z,28.20
2023-04-10T02:33:44.754Z,28.00
2023-04-10T02:36:14.262Z,28.27
2023-04-10T02:38:42.945Z,28.57
2023-04-10T02:41:11.818Z,30.20
2023-04-10T02:43:40.532Z,29.83
2023-04-10T02:46:09.246Z,29.95
2023-04-10T02:48:39.428Z,31.17
2023-04-10T02:51:09.099Z,31.80
2023-04-10T02:53:37.763Z,30.90
2023-04-10T02:56:08.281Z,32.00
2023-04-10T02:58:37.187Z,30.60
2023-04-10T03:01:08.095Z,31.60
2023-04-10T03:03:38.221Z,30.20
2023-04-10T03:06:08.136Z,30.27
2023-04-10T03:08:36.986Z,30.20
2023-04-10T03:11:06.052Z,31.73
2023-04-10T03:13:34.797Z,31.23
2023-04-10T03:16:03.563Z,32.00
2023-04-10T03:18:34.355Z,31.75
2023-04-10T03:21:04.557Z,31.40
2023-04-10T03:23:33.333Z,32.03
2023-04-10T03:26:02.047Z,32.23
2023-04-10T03:28:30.917Z,32.70
2023-04-10T03:30:59.594Z,32.07
2023-04-10T03:33:28.323Z,33.40
2023-04-10T03:35:57.414Z,32.88
2023-04-10T03:38:27.605Z,32.35
2023-04-10T03:40:56.418Z,34.45
2023-04-10T03:43:26.002Z,34.17
2023-04-10T03:45:54.734Z,33.42
2023-04-10T03:48:23.394Z,35.27
2023-04-10T03:50:52.237Z,33.20
2023-04-10T03:53:21.009Z,34.25
2023-04-10T03:55:52.509Z,34.73
2023-04-10T03:58:21.575Z,34.97
2023-04-10T04:00:50.398Z,35.57
2023-04-10T04:03:19.522Z,35.35
2023-04-10T04:05:48.332Z,35.87
2023-04-10T04:08:17.030Z,34.77
2023-04-10T04:10:45.742Z,35.77
2023-04-10T04:13:15.739Z,34.33
2023-04-10T04:15:44.410Z,35.35
2023-04-10T04:18:13.064Z,35.40
2023-04-10T04:20:41.950Z,34.77
2023-04-10T04:23:10.614Z,35.80
2023-04-10T04:25:39.255Z,35.70
2023-04-10T04:28:07.973Z,33.67
2023-04-10T04:30:38.113Z,33.93
2023-04-10T04:33:07.146Z,34.90
2023-04-10T04:35:36.043Z,35.80
2023-04-10T04:38:04.703Z,35.60
2023-04-10T04:40:33.567Z,35.17
2023-04-10T04:43:02.204Z,34.30
2023-04-10T04:45:31.122Z,35.77
2023-04-10T04:48:01.239Z,34.30
2023-04-10T04:50:30.005Z,35.17
2023-04-10T04:53:00.492Z,34.53
2023-04-10T04:55:29.205Z,34.70
2023-04-10T04:57:57.994Z,33.72
2023-04-10T05:00:26.659Z,33.58
2023-04-10T05:02:55.691Z,32.10
2023-04-10T05:05:26.150Z,31.10
2023-04-10T05:07:54.879Z,30.27
2023-04-10T05:10:23.621Z,30.38
2023-04-10T05:12:52.366Z,29.40
2023-04-10T05:15:21.042Z,29.38
2023-04-10T05:17:51.216Z,29.05
2023-04-10T05:20:21.834Z,27.67
2023-04-10T05:22:53.170Z,27.73
2023-04-10T05:25:22.157Z,27.77
2023-04-10T05:27:51.056Z,27.15
2023-04-10T05:30:20.012Z,27.05
2023-04-10T05:32:48.736Z,26.77
2023-04-10T05:35:17.597Z,26.13
2023-04-10T05:37:46.289Z,26.42
2023-04-10T05:40:16.788Z,26.08
2023-04-10T05:42:45.462Z,24.75
2023-04-10T05:45:15.199Z,24.50
2023-04-10T05:47:43.999Z,26.10
2023-04-10T05:50:12.825Z,27.23
2023-04-10T05:52:41.608Z,26.27
2023-04-10T05:55:11.222Z,26.60
2023-04-10T05:57:41.477Z,24.95
2023-04-10T06:00:12.037Z,25.00
2023-04-10T06:02:41.003Z,26.02
2023-04-10T06:05:10.818Z,25.63
2023-04-10T06:07:39.439Z,22.63
2023-04-10T06:10:10.102Z,27.05
2023-04-10T06:12:40.537Z,26.77
2023-04-10T06:15:10.676Z,25.98
2023-04-10T06:17:44.764Z,26.35
2023-04-10T06:20:14.186Z,25.85
2023-04-10T06:22:42.858Z,19.73
2023-04-10T06:25:11.857Z,19.77
2023-04-10T06:27:42.618Z,18.33
2023-04-10T06:30:12.144Z,25.17
2023-04-10T06:32:40.877Z,19.45
2023-04-10T06:35:10.716Z,19.38
2023-04-10T06:37:39.350Z,19.33
2023-04-10T06:40:11.375Z,18.85
2023-04-10T06:42:42.105Z,22.40
2023-04-10T06:45:12.257Z,19.25
2023-04-10T06:47:41.286Z,20.05
2023-04-10T06:50:10.985Z,21.38
2023-04-10T06:52:39.643Z,18.92
2023-04-10T06:55:09.674Z,19.95
2023-04-10T06:57:38.368Z,19.70
2023-04-10T07:00:10.608Z,19.30
2023-04-10T07:02:39.437Z,18.75
2023-04-10T07:05:08.860Z,18.58
2023-04-10T07:07:37.567Z,18.65
2023-04-10T07:10:07.676Z,19.75
2023-04-10T07:12:36.535Z,19.05
2023-04-10T07:15:08.343Z,19.50
2023-04-10T07:17:37.065Z,18.63
2023-04-10T07:20:07.862Z,18.85
2023-04-10T07:22:36.470Z,20.48
2023-04-10T07:25:07.243Z,23.95
2023-04-10T07:27:36.089Z,20.48
2023-04-10T07:30:05.224Z,24.20
2023-04-10T07:32:35.524Z,24.05
2023-04-10T07:35:04.511Z,23.73
2023-04-10T07:37:33.246Z,24.73
2023-04-10T07:40:02.648Z,20.20
2023-04-10T07:42:31.637Z,23.10
2023-04-10T07:45:00.327Z,23.88
2023-04-10T07:47:29.087Z,24.50
2023-04-10T07:49:59.150Z,25.33
2023-04-10T07:52:27.803Z,25.48
2023-04-10T07:54:56.431Z,26.67
2023-04-10T07:57:25.924Z,25.33
2023-04-10T07:59:54.633Z,26.52
2023-04-10T08:02:23.558Z,21.27
2023-04-10T08:04:52.612Z,21.75
2023-04-10T08:07:23.357Z,20.70
2023-04-10T08:09:51.959Z,21.23
2023-04-10T08:12:20.734Z,25.13
2023-04-10T08:14:51.713Z,25.38
2023-04-10T08:17:38.855Z,25.33
2023-04-10T08:20:09.917Z,25.80
2023-04-10T08:22:40.068Z,25.27
2023-04-10T08:25:09.748Z,26.02
2023-04-10T08:27:38.566Z,24.42
2023-04-10T08:30:08.957Z,21.02
2023-04-10T08:32:37.963Z,20.58
2023-04-10T08:35:07.970Z,20.83
2023-04-10T08:37:37.131Z,26.35
2023-04-10T08:40:08.897Z,25.77
2023-04-10T08:42:38.149Z,27.40
2023-04-10T08:45:08.262Z,22.60
2023-04-10T08:47:39.125Z,21.17
2023-04-10T08:50:12.187Z,25.52
2023-04-10T08:52:46.660Z,21.80
2023-04-10T08:55:17.183Z,20.23
2023-04-10T08:57:54.289Z,25.33
2023-04-10T09:00:31.692Z,24.67
2023-04-10T09:03:00.577Z,24.60
2023-04-10T09:05:30.901Z,23.63
2023-04-10T09:07:59.722Z,23.33
2023-04-10T09:10:30.069Z,20.48
2023-04-10T09:12:58.918Z,20.95
2023-04-10T09:15:27.722Z,21.02
2023-04-10T09:17:59.028Z,20.67
2023-04-10T09:20:31.838Z,25.25
2023-04-10T09:23:00.525Z,25.38
2023-04-10T09:25:37.152Z,25.27
2023-04-10T09:28:08.533Z,20.38
2023-04-10T09:30:40.154Z,27.02
2023-04-10T09:33:27.670Z,25.70
2023-04-10T09:36:00.057Z,26.77
2023-04-10T09:38:28.833Z,26.88
2023-04-10T09:41:09.262Z,25.08
2023-04-10T09:43:39.106Z,24.40
2023-04-10T09:46:08.299Z,24.42
2023-04-10T09:48:37.146Z,25.73
2023-04-10T09:51:06.418Z,26.45
2023-04-10T09:53:50.967Z,24.85
2023-04-10T09:56:21.689Z,20.08
2023-04-10T09:58:52.732Z,24.73
2023-04-10T10:01:23.703Z,20.60
2023-04-10T10:03:53.205Z,20.08
2023-04-10T10:06:22.740Z,22.85
2023-04-10T10:08:52.676Z,23.25
2023-04-10T10:11:27.281Z,19.10
2023-04-10T10:13:57.263Z,20.25
2023-04-10T10:16:35.553Z,19.88
2023-04-10T10:19:14.127Z,26.38
2023-04-10T10:21:45.866Z,25.40
2023-04-10T10:24:16.039Z,21.67
2023-04-10T10:26:48.360Z,19.33
2023-04-10T10:29:18.850Z,19.58
2023-04-10T10:31:49.384Z,19.45
2023-04-10T10:34:18.636Z,19.42
2023-04-10T10:36:47.468Z,24.02
2023-04-10T10:39:32.098Z,19.55
2023-04-10T10:42:16.221Z,22.75
2023-04-10T10:44:50.604Z,21.63
2023-04-10T10:47:25.525Z,21.52
2023-04-10T10:49:59.837Z,21.02
2023-04-10T10:52:47.014Z,20.23
2023-04-10T10:55:38.013Z,20.83
2023-04-10T10:58:11.358Z,19.83
2023-04-10T11:01:11.472Z,16.38
2023-04-10T11:03:40.872Z,15.18
2023-04-10T11:06:12.754Z,18.17
2023-04-10T11:08:47.651Z,17.15
2023-04-10T11:11:21.875Z,22.10
2023-04-10T11:14:21.586Z,20.90
2023-04-10T11:16:50.457Z,19.95
2023-04-10T11:19:22.648Z,20.58
2023-04-10T11:22:09.529Z,16.55
2023-04-10T11:25:02.666Z,15.00
2023-04-10T11:27:53.106Z,17.83
2023-04-10T11:30:35.614Z,17.33
2023-04-10T11:33:06.661Z,13.50
2023-04-10T11:35:35.667Z,17.40
2023-04-10T11:38:17.013Z,14.23
2023-04-10T11:41:04.545Z,14.07
2023-04-10T11:43:35.379Z,15.35
2023-04-10T11:46:08.772Z,14.38
2023-04-10T11:48:38.848Z,18.55
2023-04-10T11:51:15.699Z,15.25
2023-04-10T11:53:44.506Z,14.85
2023-04-10T11:56:22.603Z,15.52
2023-04-10T11:58:54.904Z,15.68
2023-04-10T12:01:26.265Z,15.25
2023-04-10T12:03:55.742Z,13.35
2023-04-10T12:06:25.876Z,13.90
2023-04-10T12:08:55.259Z,13.82
2023-04-10T12:11:26.797Z,17.23
2023-04-10T12:13:57.744Z,18.42
2023-04-10T12:16:28.687Z,19.42
2023-04-10T12:18:58.111Z,17.15
2023-04-10T12:21:27.482Z,16.70
2023-04-10T12:23:56.220Z,16.80
2023-04-10T12:26:25.089Z,16.20
2023-04-10T12:28:57.712Z,12.95
2023-04-10T12:31:32.606Z,12.88
2023-04-10T12:34:03.257Z,13.80
2023-04-10T12:36:35.058Z,13.20
2023-04-10T12:39:06.709Z,13.07
2023-04-10T12:41:36.739Z,13.07
2023-04-10T12:44:11.420Z,12.90
2023-04-10T12:46:43.096Z,13.00
2023-04-10T12:49:14.306Z,14.13
2023-04-10T12:51:52.131Z,14.80
2023-04-10T12:54:33.382Z,15.13
2023-04-10T12:57:04.099Z,14.95
2023-04-10T12:59:33.851Z,14.85
2023-04-10T13:02:04.147Z,14.70
2023-04-10T13:04:33.506Z,11.43
2023-04-10T13:07:02.378Z,11.75
2023-04-10T13:09:31.344Z,11.27
2023-04-10T13:12:00.246Z,12.68
2023-04-10T13:14:47.869Z,13.25
2023-04-10T13:17:17.989Z,14.00
2023-04-10T13:19:46.630Z,14.68
2023-04-10T13:22:15.693Z,14.10
2023-04-10T13:24:46.680Z,13.80
2023-04-10T13:27:15.893Z,15.13
2023-04-10T13:29:45.111Z,14.25
2023-04-10T13:32:13.774Z,15.23
2023-04-10T13:34:43.952Z,11.65
2023-04-10T13:37:13.803Z,11.05
2023-04-10T13:39:43.577Z,10.75
2023-04-10T13:42:12.247Z,11.40
2023-04-10T13:44:40.944Z,12.93
2023-04-10T13:47:09.942Z,13.48
2023-04-10T13:49:38.646Z,14.25
2023-04-10T13:52:08.860Z,10.77
2023-04-10T13:54:37.548Z,11.35
2023-04-10T13:57:06.246Z,13.68
2023-04-10T13:59:35.072Z,12.90
2023-04-10T14:02:03.807Z,12.00
2023-04-10T14:04:32.522Z,10.38
2023-04-10T14:07:02.218Z,9.98
2023-04-10T14:09:32.378Z,11.13
2023-04-10T14:12:02.052Z,10.45
2023-04-10T14:14:30.757Z,10.73
2023-04-10T14:16:59.467Z,10.48
2023-04-10T14:19:28.316Z,11.52
2023-04-10T14:21:56.947Z,11.27
2023-04-10T14:24:25.669Z,13.85
2023-04-10T14:26:58.442Z,12.90
2023-04-10T14:29:36.374Z,13.35
2023-04-10T14:32:08.322Z,14.73
2023-04-10T14:34:37.063Z,13.50
2023-04-10T14:37:05.778Z,16.05
2023-04-10T14:39:34.431Z,13.07
2023-04-10T14:42:04.552Z,13.85
2023-04-10T14:44:33.488Z,13.27
2023-04-10T14:47:02.230Z,12.32
2023-04-10T14:49:30.915Z,13.40
2023-04-10T14:51:59.592Z,12.48
2023-04-10T14:54:28.314Z,11.93
2023-04-10T14:56:57.217Z,12.70
2023-04-10T14:59:27.736Z,11.77
2023-04-10T15:01:56.525Z,11.85
2023-04-10T15:04:25.562Z,12.95
2023-04-10T15:06:54.336Z,11.60
2023-04-10T15:09:23.057Z,11.80
2023-04-10T15:11:51.799Z,11.30
2023-04-10T15:14:20.544Z,11.43
2023-04-10T15:16:52.679Z,11.23
2023-04-10T15:19:22.691Z,11.30
2023-04-10T15:21:54.093Z,11.18
2023-04-10T15:24:22.867Z,12.15
2023-04-10T15:26:53.628Z,17.50
2023-04-10T15:29:22.314Z,12.73
2023-04-10T15:31:52.505Z,11.75
2023-04-10T15:34:21.290Z,11.60
2023-04-10T15:36:49.976Z,11.45
2023-04-10T15:39:18.651Z,10.73
2023-04-10T15:41:49.651Z,11.27
2023-04-10T15:44:18.554Z,12.40
2023-04-10T15:46:47.751Z,11.40
2023-04-10T15:49:29.929Z,10.23
2023-04-10T15:52:06.056Z,9.73
2023-04-10T15:54:35.281Z,8.93
2023-04-10T15:57:04.475Z,11.40
2023-04-10T15:59:35.976Z,20.58
2023-04-10T16:02:04.858Z,12.38
2023-04-10T16:04:35.359Z,10.98
2023-04-10T16:07:04.188Z,9.00
2023-04-10T16:09:32.781Z,10.63
2023-04-10T16:12:02.163Z,10.73
2023-04-10T16:14:31.014Z,10.50
2023-04-10T16:16:59.793Z,10.63
2023-04-10T16:19:31.816Z,11.50
2023-04-10T16:22:01.972Z,11.38
2023-04-10T16:24:30.680Z,11.35
2023-04-10T16:26:59.307Z,22.38
2023-04-10T16:29:28.876Z,31.44
2023-04-10T16:31:57.710Z,13.18
2023-04-10T16:34:26.454Z,12.10
2023-04-10T16:36:55.359Z,10.57
2023-04-10T16:39:25.860Z,11.15
2023-04-10T16:41:54.828Z,10.73
2023-04-10T16:44:23.674Z,10.50
2023-04-10T16:46:52.537Z,10.45
2023-04-10T16:49:22.584Z,11.23
2023-04-10T16:51:51.927Z,11.52
2023-04-10T16:54:20.927Z,10.68
2023-04-10T16:56:51.339Z,10.13
2023-04-10T16:59:20.114Z,10.52
2023-04-10T17:01:49.231Z,10.68
2023-04-10T17:04:19.680Z,11.48
2023-04-10T17:06:48.590Z,11.55
2023-04-10T17:09:17.408Z,10.93
2023-04-10T17:11:46.366Z,11.75
2023-04-10T17:14:16.532Z,12.10
2023-04-10T17:16:45.839Z,11.63
2023-04-10T17:19:14.676Z,11.63
2023-04-10T17:21:43.518Z,11.80
2023-04-10T17:24:12.268Z,12.32
2023-04-10T17:26:41.229Z,11.55
2023-04-10T17:29:10.075Z,11.95
2023-04-10T17:31:40.567Z,11.18
2023-04-10T17:34:09.551Z,11.40
2023-04-10T17:36:38.410Z,11.50
2023-04-10T17:39:07.368Z,11.77
2023-04-10T17:41:36.230Z,12.15
2023-04-10T17:44:05.710Z,11.65
2023-04-10T17:46:34.499Z,11.45
2023-04-10T17:49:07.460Z,12.52
2023-04-10T17:51:36.362Z,12.75
2023-04-10T17:54:05.325Z,12.98
2023-04-10T17:56:34.080Z,12.88
2023-04-10T17:59:02.926Z,13.48
2023-04-10T18:01:31.753Z,12.38
2023-04-10T18:04:02.808Z,13.98
2023-04-10T18:06:33.205Z,18.17
2023-04-10T18:09:02.432Z,14.30
2023-04-10T18:11:31.424Z,13.80
2023-04-10T18:14:01.605Z,13.45
2023-04-10T18:16:32.670Z,12.52
2023-04-10T18:19:01.657Z,12.55
2023-04-10T18:21:31.693Z,13.02
2023-04-10T18:24:02.276Z,13.40
2023-04-10T18:26:36.228Z,13.23
2023-04-10T18:29:05.504Z,12.85
2023-04-10T18:31:34.544Z,12.85
2023-04-10T18:34:07.593Z,13.15
2023-04-10T18:36:37.162Z,13.30
2023-04-10T18:39:07.420Z,12.70
2023-04-10T18:41:36.950Z,13.30
2023-04-10T18:44:06.279Z,12.98
2023-04-10T18:46:35.203Z,13.90
2023-04-10T18:49:04.195Z,14.05
2023-04-10T18:51:35.587Z,13.38
2023-04-10T18:54:06.500Z,13.63
2023-04-10T18:56:36.018Z,12.75
2023-04-10T18:59:05.509Z,13.57
2023-04-10T19:01:34.339Z,13.38
2023-04-10T19:04:03.185Z,13.52
2023-04-10T19:06:32.531Z,14.55
2023-04-10T19:09:01.508Z,13.77
2023-04-10T19:11:31.629Z,14.48
2023-04-10T19:14:00.264Z,13.50
2023-04-10T19:16:28.931Z,21.75
2023-04-10T19:18:57.746Z,20.90
2023-04-10T19:21:27.819Z,22.70
2023-04-10T19:23:56.663Z,20.00
2023-04-10T19:26:25.581Z,18.02
2023-04-10T19:28:55.910Z,21.40
2023-04-10T19:31:27.729Z,18.10
2023-04-10T19:33:57.265Z,17.15
2023-04-10T19:36:27.325Z,16.38
2023-04-10T19:38:57.507Z,14.45
2023-04-10T19:41:26.504Z,15.57
2023-04-10T19:43:56.869Z,14.88
2023-04-10T19:46:28.900Z,14.77
2023-04-10T19:48:57.534Z,14.48
2023-04-10T19:51:26.985Z,15.02
2023-04-10T19:53:57.853Z,16.15
2023-04-10T19:56:28.669Z,32.45
2023-04-10T19:58:59.159Z,32.28
2023-04-10T20:01:28.177Z,20.77
2023-04-10T20:03:56.979Z,13.93
2023-04-10T20:06:27.371Z,13.95
2023-04-10T20:08:56.449Z,14.13
2023-04-10T20:11:30.707Z,13.73
2023-04-10T20:14:01.291Z,13.60
2023-04-10T20:16:30.243Z,13.80
2023-04-10T20:18:59.299Z,14.50
2023-04-10T20:21:28.575Z,14.13
2023-04-10T20:23:57.801Z,14.73
2023-04-10T20:26:26.808Z,14.10
2023-04-10T20:28:56.062Z,14.52
2023-04-10T20:31:26.708Z,14.80
2023-04-10T20:33:55.365Z,14.82
2023-04-10T20:36:24.041Z,15.65
2023-04-10T20:38:53.174Z,14.45
2023-04-10T20:41:22.695Z,14.68
2023-04-10T20:43:52.093Z,15.40
2023-04-10T20:46:20.804Z,14.80
2023-04-10T20:48:50.846Z,15.73
2023-04-10T20:51:19.563Z,15.32
2023-04-10T20:53:48.282Z,16.23
2023-04-10T20:56:17.117Z,15.55
2023-04-10T20:58:45.866Z,15.60
2023-04-10T21:01:16.849Z,14.52
2023-04-10T21:03:45.862Z,14.93
2023-04-10T21:06:16.894Z,14.88
2023-04-10T21:08:45.653Z,14.50
2023-04-10T21:11:14.336Z,15.15
2023-04-10T21:13:43.157Z,13.85
2023-04-10T21:16:11.981Z,15.80
2023-04-10T21:18:40.810Z,15.70
2023-04-10T21:21:10.381Z,16.15
2023-04-10T21:23:40.499Z,14.25
2023-04-10T21:26:09.493Z,14.02
2023-04-10T21:28:38.194Z,15.43
2023-04-10T21:31:07.169Z,15.75
2023-04-10T21:33:36.024Z,15.65
2023-04-10T21:36:06.592Z,16.75
2023-04-10T21:38:35.457Z,15.48
2023-04-10T21:41:05.825Z,15.68
2023-04-10T21:43:35.385Z,15.65
2023-04-10T21:46:04.178Z,14.27
2023-04-10T21:48:35.861Z,14.27
2023-04-10T21:51:04.992Z,18.30
2023-04-10T21:53:36.918Z,14.68
2023-04-10T21:56:08.038Z,14.23
2023-04-10T21:58:38.198Z,18.33
2023-04-10T22:01:08.579Z,16.95
2023-04-10T22:03:37.359Z,14.00
2023-04-10T22:06:06.412Z,15.38
2023-04-10T22:08:35.058Z,15.02
2023-04-10T22:11:03.803Z,14.98
2023-04-10T22:13:34.134Z,15.13
2023-04-10T22:16:03.047Z,15.50
2023-04-10T22:18:32.011Z,15.27
2023-04-10T22:21:00.767Z,16.13
2023-04-10T22:23:29.394Z,15.48
2023-04-10T22:26:00.865Z,15.55
2023-04-10T22:28:29.732Z,14.80
2023-04-10T22:30:59.906Z,15.20
2023-04-10T22:33:28.649Z,14.13
2023-04-10T22:35:57.290Z,13.77
2023-04-10T22:38:26.012Z,13.95
2023-04-10T22:40:56.104Z,14.40
2023-04-10T22:43:24.943Z,16.30
2023-04-10T22:45:53.728Z,16.65
2023-04-10T22:48:23.878Z,14.43
2023-04-10T22:50:52.518Z,14.02
2023-04-10T22:53:21.212Z,12.88
2023-04-10T22:55:49.799Z,14.00
2023-04-10T22:58:18.539Z,12.82
2023-04-10T23:00:47.133Z,14.32
2023-04-10T23:03:16.079Z,13.40
2023-04-10T23:05:47.081Z,14.30
2023-04-10T23:08:15.970Z,13.20
2023-04-10T23:10:44.888Z,13.60
2023-04-10T23:13:13.454Z,12.75
2023-04-10T23:15:42.104Z,12.13
2023-04-10T23:18:12.158Z,13.75
2023-04-10T23:20:40.924Z,12.25
2023-04-10T23:23:11.082Z,13.00
2023-04-10T23:25:39.974Z,13.07
2023-04-10T23:28:08.714Z,13.43
2023-04-10T23:30:38.125Z,13.23
2023-04-10T23:33:06.780Z,13.07
2023-04-10T23:35:35.616Z,13.10
2023-04-10T23:38:04.327Z,12.70
2023-04-10T23:40:34.558Z,13.13
2023-04-10T23:43:03.328Z,12.38
2023-04-10T23:45:32.024Z,12.20
2023-04-10T23:48:00.721Z,12.80
2023-04-10T23:50:29.397Z,12.23
2023-04-10T23:52:59.449Z,12.68
2023-04-10T23:55:28.411Z,12.77
2023-04-10T23:57:58.488Z,13.52
